sensor_id;sensor_type;location;lat;lon;timestamp;P1;durP1;ratioP1;P2;durP2;ratioP2
70715;SDS011;59053;50.832;12.882;2023-02-03T00:01:07;9.65;;;2.80;;
70715;SDS011;59053;50.832;12.882;2023-02-03T00:03:32;9.67;;;3.10;;
70715;SDS011;59053;50.832;12.882;2023-02-03T00:05:59;8.37;;;2.60;;
70715;SDS011;59053;50.832;12.882;2023-02-03T00:08:24;9.02;;;2.78;;
70715;SDS011;59053;50.832;12.882;2023-02-03T00:10:49;7.47;;;2.87;;
70715;SDS011;59053;50.832;12.882;2023-02-03T00:13:15;7.97;;;2.20;;
70715;SDS011;59053;50.832;12.882;2023-02-03T00:15:40;7.77;;;2.63;;
70715;SDS011;59053;50.832;12.882;2023-02-03T00:18:05;9.93;;;3.10;;
70715;SDS011;59053;50.832;12.882;2023-02-03T00:20:31;13.23;;;2.60;;
70715;SDS011;59053;50.832;12.882;2023-02-03T00:23:03;6.30;;;2.70;;
70715;SDS011;59053;50.832;12.882;2023-02-03T00:25:29;9.50;;;2.70;;
70715;SDS011;59053;50.832;12.882;2023-02-03T00:27:55;8.60;;;2.90;;
70715;SDS011;59053;50.832;12.882;2023-02-03T00:30:20;6.90;;;2.60;;
70715;SDS011;59053;50.832;12.882;2023-02-03T00:32:45;8.20;;;3.13;;
70715;SDS011;59053;50.832;12.882;2023-02-03T00:35:10;7.82;;;2.70;;
70715;SDS011;59053;50.832;12.882;2023-02-03T00:37:36;10.27;;;2.97;;
70715;SDS011;59053;50.832;12.882;2023-02-03T00:40:01;8.00;;;2.77;;
70715;SDS011;59053;50.832;12.882;2023-02-03T00:42:27;8.33;;;2.67;;
70715;SDS011;59053;50.832;12.882;2023-02-03T00:44:52;8.23;;;2.83;;
70715;SDS011;59053;50.832;12.882;2023-02-03T00:47:17;11.33;;;3.13;;
70715;SDS011;59053;50.832;12.882;2023-02-03T00:49:43;9.17;;;3.00;;
70715;SDS011;59053;50.832;12.882;2023-02-03T00:52:08;8.70;;;2.53;;
70715;SDS011;59053;50.832;12.882;2023-02-03T00:54:33;7.47;;;2.53;;
70715;SDS011;59053;50.832;12.882;2023-02-03T00:56:59;8.43;;;2.70;;
70715;SDS011;59053;50.832;12.882;2023-02-03T00:59:24;10.00;;;2.90;;
70715;SDS011;59053;50.832;12.882;2023-02-03T01:01:49;7.00;;;2.77;;
70715;SDS011;59053;50.832;12.882;2023-02-03T01:04:15;9.20;;;2.92;;
70715;SDS011;59053;50.832;12.882;2023-02-03T01:06:41;9.77;;;2.90;;
70715;SDS011;59053;50.832;12.882;2023-02-03T01:09:06;7.67;;;2.77;;
70715;SDS011;59053;50.832;12.882;2023-02-03T01:11:32;9.27;;;2.47;;
70715;SDS011;59053;50.832;12.882;2023-02-03T01:13:57;7.17;;;2.50;;
70715;SDS011;59053;50.832;12.882;2023-02-03T01:16:27;6.97;;;2.30;;
70715;SDS011;59053;50.832;12.882;2023-02-03T01:18:54;6.90;;;2.28;;
70715;SDS011;59053;50.832;12.882;2023-02-03T01:21:21;7.13;;;2.10;;
70715;SDS011;59053;50.832;12.882;2023-02-03T01:23:48;5.40;;;2.08;;
70715;SDS011;59053;50.832;12.882;2023-02-03T01:26:15;7.30;;;2.10;;
70715;SDS011;59053;50.832;12.882;2023-02-03T01:28:42;4.00;;;1.40;;
70715;SDS011;59053;50.832;12.882;2023-02-03T01:31:08;5.20;;;1.75;;
70715;SDS011;59053;50.832;12.882;2023-02-03T01:33:34;3.63;;;1.40;;
70715;SDS011;59053;50.832;12.882;2023-02-03T01:36:00;4.25;;;1.77;;
70715;SDS011;59053;50.832;12.882;2023-02-03T01:38:26;7.27;;;2.20;;
70715;SDS011;59053;50.832;12.882;2023-02-03T01:40:51;4.97;;;2.10;;
70715;SDS011;59053;50.832;12.882;2023-02-03T01:43:33;4.60;;;1.90;;
70715;SDS011;59053;50.832;12.882;2023-02-03T01:45:59;7.35;;;2.28;;
70715;SDS011;59053;50.832;12.882;2023-02-03T01:48:27;5.35;;;2.20;;
70715;SDS011;59053;50.832;12.882;2023-02-03T01:50:55;5.80;;;2.50;;
70715;SDS011;59053;50.832;12.882;2023-02-03T01:53:21;7.68;;;2.28;;
70715;SDS011;59053;50.832;12.882;2023-02-03T01:55:47;7.00;;;2.50;;
70715;SDS011;59053;50.832;12.882;2023-02-03T01:58:14;6.75;;;2.40;;
70715;SDS011;59053;50.832;12.882;2023-02-03T02:00:45;7.90;;;2.63;;
70715;SDS011;59053;50.832;12.882;2023-02-03T02:03:11;7.32;;;2.88;;
70715;SDS011;59053;50.832;12.882;2023-02-03T02:05:51;7.97;;;2.70;;
70715;SDS011;59053;50.832;12.882;2023-02-03T02:08:19;7.13;;;2.63;;
70715;SDS011;59053;50.832;12.882;2023-02-03T02:10:46;8.63;;;2.92;;
70715;SDS011;59053;50.832;12.882;2023-02-03T02:13:12;8.68;;;3.22;;
70715;SDS011;59053;50.832;12.882;2023-02-03T02:15:43;7.83;;;2.80;;
70715;SDS011;59053;50.832;12.882;2023-02-03T02:21:37;7.95;;;2.38;;
70715;SDS011;59053;50.832;12.882;2023-02-03T02:29:24;9.33;;;3.30;;
70715;SDS011;59053;50.832;12.882;2023-02-03T02:32:03;8.23;;;2.90;;
70715;SDS011;59053;50.832;12.882;2023-02-03T02:37:34;10.40;;;3.42;;
70715;SDS011;59053;50.832;12.882;2023-02-03T02:42:50;9.87;;;3.40;;
70715;SDS011;59053;50.832;12.882;2023-02-03T02:45:26;10.27;;;3.50;;
70715;SDS011;59053;50.832;12.882;2023-02-03T02:47:55;10.10;;;3.88;;
70715;SDS011;59053;50.832;12.882;2023-02-03T02:50:25;8.70;;;3.28;;
70715;SDS011;59053;50.832;12.882;2023-02-03T02:52:56;6.57;;;2.72;;
70715;SDS011;59053;50.832;12.882;2023-02-03T02:55:26;9.07;;;3.17;;
70715;SDS011;59053;50.832;12.882;2023-02-03T02:57:59;7.50;;;2.75;;
70715;SDS011;59053;50.832;12.882;2023-02-03T03:00:29;6.88;;;2.80;;
70715;SDS011;59053;50.832;12.882;2023-02-03T03:02:55;5.70;;;2.40;;
70715;SDS011;59053;50.832;12.882;2023-02-03T03:05:21;7.20;;;2.72;;
70715;SDS011;59053;50.832;12.882;2023-02-03T03:07:51;7.23;;;2.60;;
70715;SDS011;59053;50.832;12.882;2023-02-03T03:10:19;7.07;;;2.70;;
70715;SDS011;59053;50.832;12.882;2023-02-03T03:12:49;8.02;;;2.78;;
70715;SDS011;59053;50.832;12.882;2023-02-03T03:15:19;6.88;;;2.70;;
70715;SDS011;59053;50.832;12.882;2023-02-03T03:17:52;5.95;;;2.45;;
70715;SDS011;59053;50.832;12.882;2023-02-03T03:20:27;7.30;;;2.47;;
70715;SDS011;59053;50.832;12.882;2023-02-03T03:22:55;5.88;;;2.58;;
70715;SDS011;59053;50.832;12.882;2023-02-03T03:25:27;9.38;;;2.92;;
70715;SDS011;59053;50.832;12.882;2023-02-03T03:28:00;7.93;;;2.80;;
70715;SDS011;59053;50.832;12.882;2023-02-03T03:30:28;6.97;;;2.55;;
70715;SDS011;59053;50.832;12.882;2023-02-03T03:32:57;7.40;;;2.60;;
70715;SDS011;59053;50.832;12.882;2023-02-03T03:35:23;6.65;;;2.78;;
70715;SDS011;59053;50.832;12.882;2023-02-03T03:38:06;8.23;;;3.07;;
70715;SDS011;59053;50.832;12.882;2023-02-03T03:40:37;7.43;;;2.70;;
70715;SDS011;59053;50.832;12.882;2023-02-03T03:45:43;9.85;;;3.10;;
70715;SDS011;59053;50.832;12.882;2023-02-03T03:48:18;7.15;;;3.03;;
70715;SDS011;59053;50.832;12.882;2023-02-03T03:50:54;7.37;;;3.03;;
70715;SDS011;59053;50.832;12.882;2023-02-03T03:53:22;7.72;;;3.40;;
70715;SDS011;59053;50.832;12.882;2023-02-03T03:55:49;8.18;;;3.17;;
70715;SDS011;59053;50.832;12.882;2023-02-03T03:58:17;8.02;;;3.38;;
70715;SDS011;59053;50.832;12.882;2023-02-03T04:00:45;9.15;;;3.45;;
70715;SDS011;59053;50.832;12.882;2023-02-03T04:03:15;7.30;;;2.90;;
70715;SDS011;59053;50.832;12.882;2023-02-03T04:05:42;7.68;;;3.20;;
70715;SDS011;59053;50.832;12.882;2023-02-03T04:08:08;10.88;;;3.45;;
70715;SDS011;59053;50.832;12.882;2023-02-03T04:10:34;9.30;;;3.67;;
70715;SDS011;59053;50.832;12.882;2023-02-03T04:13:01;9.65;;;3.70;;
70715;SDS011;59053;50.832;12.882;2023-02-03T04:15:28;10.02;;;3.72;;
70715;SDS011;59053;50.832;12.882;2023-02-03T04:17:54;9.00;;;3.50;;
70715;SDS011;59053;50.832;12.882;2023-02-03T04:20:21;8.52;;;3.75;;
70715;SDS011;59053;50.832;12.882;2023-02-03T04:22:47;10.77;;;4.50;;
70715;SDS011;59053;50.832;12.882;2023-02-03T04:25:12;10.07;;;3.80;;
70715;SDS011;59053;50.832;12.882;2023-02-03T04:27:37;9.73;;;3.77;;
70715;SDS011;59053;50.832;12.882;2023-02-03T04:30:03;10.37;;;4.17;;
70715;SDS011;59053;50.832;12.882;2023-02-03T04:32:29;10.23;;;4.63;;
70715;SDS011;59053;50.832;12.882;2023-02-03T04:34:55;10.10;;;4.28;;
70715;SDS011;59053;50.832;12.882;2023-02-03T04:37:21;8.43;;;4.00;;
70715;SDS011;59053;50.832;12.882;2023-02-03T04:39:48;11.50;;;4.40;;
70715;SDS011;59053;50.832;12.882;2023-02-03T04:42:15;11.70;;;4.30;;
70715;SDS011;59053;50.832;12.882;2023-02-03T04:44:40;11.80;;;4.30;;
70715;SDS011;59053;50.832;12.882;2023-02-03T04:47:06;11.70;;;4.70;;
70715;SDS011;59053;50.832;12.882;2023-02-03T04:49:31;12.00;;;5.03;;
70715;SDS011;59053;50.832;12.882;2023-02-03T04:51:56;12.80;;;5.20;;
70715;SDS011;59053;50.832;12.882;2023-02-03T04:54:22;11.00;;;4.57;;
70715;SDS011;59053;50.832;12.882;2023-02-03T04:56:47;11.53;;;5.17;;
70715;SDS011;59053;50.832;12.882;2023-02-03T04:59:12;10.87;;;4.50;;
70715;SDS011;59053;50.832;12.882;2023-02-03T05:01:38;10.93;;;4.27;;
70715;SDS011;59053;50.832;12.882;2023-02-03T05:04:03;12.53;;;5.17;;
70715;SDS011;59053;50.832;12.882;2023-02-03T05:06:28;12.82;;;5.10;;
70715;SDS011;59053;50.832;12.882;2023-02-03T05:08:56;11.77;;;4.60;;
70715;SDS011;59053;50.832;12.882;2023-02-03T05:11:21;7.40;;;3.43;;
70715;SDS011;59053;50.832;12.882;2023-02-03T05:13:46;12.67;;;4.87;;
70715;SDS011;59053;50.832;12.882;2023-02-03T05:16:12;13.20;;;5.17;;
70715;SDS011;59053;50.832;12.882;2023-02-03T05:18:37;12.77;;;5.20;;
70715;SDS011;59053;50.832;12.882;2023-02-03T05:21:03;14.33;;;5.40;;
70715;SDS011;59053;50.832;12.882;2023-02-03T05:23:28;12.60;;;5.70;;
70715;SDS011;59053;50.832;12.882;2023-02-03T05:25:53;13.60;;;6.10;;
70715;SDS011;59053;50.832;12.882;2023-02-03T05:28:19;11.67;;;5.17;;
70715;SDS011;59053;50.832;12.882;2023-02-03T05:30:44;13.93;;;6.10;;
70715;SDS011;59053;50.832;12.882;2023-02-03T05:33:10;13.57;;;5.53;;
70715;SDS011;59053;50.832;12.882;2023-02-03T05:35:35;15.07;;;5.93;;
70715;SDS011;59053;50.832;12.882;2023-02-03T05:38:00;14.83;;;5.70;;
70715;SDS011;59053;50.832;12.882;2023-02-03T05:40:26;16.77;;;6.47;;
70715;SDS011;59053;50.832;12.882;2023-02-03T05:43:10;14.27;;;5.47;;
70715;SDS011;59053;50.832;12.882;2023-02-03T05:45:36;13.47;;;5.67;;
70715;SDS011;59053;50.832;12.882;2023-02-03T05:48:01;15.32;;;5.97;;
70715;SDS011;59053;50.832;12.882;2023-02-03T05:50:27;13.07;;;5.20;;
70715;SDS011;59053;50.832;12.882;2023-02-03T05:53:05;15.32;;;6.05;;
70715;SDS011;59053;50.832;12.882;2023-02-03T05:55:31;17.30;;;5.30;;
70715;SDS011;59053;50.832;12.882;2023-02-03T05:57:56;16.43;;;5.90;;
70715;SDS011;59053;50.832;12.882;2023-02-03T06:00:22;15.48;;;5.93;;
70715;SDS011;59053;50.832;12.882;2023-02-03T06:02:54;13.87;;;5.27;;
70715;SDS011;59053;50.832;12.882;2023-02-03T06:05:21;14.15;;;5.70;;
70715;SDS011;59053;50.832;12.882;2023-02-03T06:07:48;16.50;;;5.65;;
70715;SDS011;59053;50.832;12.882;2023-02-03T06:10:13;13.00;;;4.80;;
70715;SDS011;59053;50.832;12.882;2023-02-03T06:12:39;13.20;;;4.97;;
70715;SDS011;59053;50.832;12.882;2023-02-03T06:15:05;12.87;;;5.30;;
70715;SDS011;59053;50.832;12.882;2023-02-03T06:17:30;11.05;;;4.47;;
70715;SDS011;59053;50.832;12.882;2023-02-03T06:19:56;15.30;;;5.60;;
70715;SDS011;59053;50.832;12.882;2023-02-03T06:22:21;11.67;;;5.20;;
70715;SDS011;59053;50.832;12.882;2023-02-03T06:24:46;10.63;;;4.53;;
70715;SDS011;59053;50.832;12.882;2023-02-03T06:27:12;12.02;;;4.57;;
70715;SDS011;59053;50.832;12.882;2023-02-03T06:29:38;10.50;;;4.83;;
70715;SDS011;59053;50.832;12.882;2023-02-03T06:32:04;10.23;;;4.50;;
70715;SDS011;59053;50.832;12.882;2023-02-03T06:34:29;12.50;;;4.50;;
70715;SDS011;59053;50.832;12.882;2023-02-03T06:36:56;10.57;;;4.43;;
70715;SDS011;59053;50.832;12.882;2023-02-03T06:39:22;9.10;;;4.40;;
70715;SDS011;59053;50.832;12.882;2023-02-03T06:41:47;8.20;;;4.30;;
70715;SDS011;59053;50.832;12.882;2023-02-03T06:44:13;9.10;;;4.05;;
70715;SDS011;59053;50.832;12.882;2023-02-03T06:46:38;10.53;;;3.60;;
70715;SDS011;59053;50.832;12.882;2023-02-03T06:49:03;8.17;;;3.47;;
70715;SDS011;59053;50.832;12.882;2023-02-03T06:51:29;8.57;;;3.53;;
70715;SDS011;59053;50.832;12.882;2023-02-03T06:53:54;10.97;;;3.57;;
70715;SDS011;59053;50.832;12.882;2023-02-03T06:56:19;6.90;;;3.00;;
70715;SDS011;59053;50.832;12.882;2023-02-03T06:58:45;6.53;;;3.13;;
70715;SDS011;59053;50.832;12.882;2023-02-03T07:01:10;8.03;;;2.93;;
70715;SDS011;59053;50.832;12.882;2023-02-03T07:03:35;8.02;;;3.15;;
70715;SDS011;59053;50.832;12.882;2023-02-03T07:06:01;7.80;;;3.10;;
70715;SDS011;59053;50.832;12.882;2023-02-03T07:08:26;5.93;;;2.80;;
70715;SDS011;59053;50.832;12.882;2023-02-03T07:10:52;5.57;;;2.33;;
70715;SDS011;59053;50.832;12.882;2023-02-03T07:13:18;5.88;;;2.85;;
70715;SDS011;59053;50.832;12.882;2023-02-03T07:15:43;6.00;;;2.53;;
70715;SDS011;59053;50.832;12.882;2023-02-03T07:18:09;7.87;;;2.60;;
70715;SDS011;59053;50.832;12.882;2023-02-03T07:20:34;5.20;;;2.33;;
70715;SDS011;59053;50.832;12.882;2023-02-03T07:22:59;6.23;;;2.07;;
70715;SDS011;59053;50.832;12.882;2023-02-03T07:25:25;6.20;;;2.20;;
70715;SDS011;59053;50.832;12.882;2023-02-03T07:27:50;4.72;;;2.33;;
70715;SDS011;59053;50.832;12.882;2023-02-03T07:30:16;5.13;;;2.23;;
70715;SDS011;59053;50.832;12.882;2023-02-03T07:32:45;4.40;;;2.00;;
70715;SDS011;59053;50.832;12.882;2023-02-03T07:35:11;3.95;;;1.73;;
70715;SDS011;59053;50.832;12.882;2023-02-03T07:37:37;4.97;;;2.20;;
70715;SDS011;59053;50.832;12.882;2023-02-03T07:40:02;3.13;;;1.53;;
70715;SDS011;59053;50.832;12.882;2023-02-03T07:42:27;4.73;;;1.80;;
70715;SDS011;59053;50.832;12.882;2023-02-03T07:44:53;4.03;;;1.90;;
70715;SDS011;59053;50.832;12.882;2023-02-03T07:47:19;4.13;;;1.80;;
70715;SDS011;59053;50.832;12.882;2023-02-03T07:49:44;4.67;;;1.83;;
70715;SDS011;59053;50.832;12.882;2023-02-03T07:52:09;5.13;;;1.95;;
70715;SDS011;59053;50.832;12.882;2023-02-03T07:54:35;3.90;;;1.93;;
70715;SDS011;59053;50.832;12.882;2023-02-03T07:57:00;5.23;;;2.03;;
70715;SDS011;59053;50.832;12.882;2023-02-03T07:59:25;3.93;;;2.17;;
70715;SDS011;59053;50.832;12.882;2023-02-03T08:01:51;4.60;;;2.13;;
70715;SDS011;59053;50.832;12.882;2023-02-03T08:04:20;6.55;;;2.40;;
70715;SDS011;59053;50.832;12.882;2023-02-03T08:06:45;3.53;;;1.70;;
70715;SDS011;59053;50.832;12.882;2023-02-03T08:09:10;6.90;;;2.50;;
70715;SDS011;59053;50.832;12.882;2023-02-03T08:11:36;4.17;;;2.20;;
70715;SDS011;59053;50.832;12.882;2023-02-03T08:14:01;5.87;;;2.30;;
70715;SDS011;59053;50.832;12.882;2023-02-03T08:16:26;7.20;;;2.53;;
70715;SDS011;59053;50.832;12.882;2023-02-03T08:18:52;5.47;;;2.47;;
70715;SDS011;59053;50.832;12.882;2023-02-03T08:21:17;5.67;;;2.40;;
70715;SDS011;59053;50.832;12.882;2023-02-03T08:23:42;5.93;;;2.37;;
70715;SDS011;59053;50.832;12.882;2023-02-03T08:26:08;5.80;;;2.50;;
70715;SDS011;59053;50.832;12.882;2023-02-03T08:28:33;5.90;;;2.30;;
70715;SDS011;59053;50.832;12.882;2023-02-03T08:30:58;4.50;;;2.27;;
70715;SDS011;59053;50.832;12.882;2023-02-03T08:33:24;5.30;;;2.70;;
70715;SDS011;59053;50.832;12.882;2023-02-03T08:35:49;7.10;;;2.72;;
70715;SDS011;59053;50.832;12.882;2023-02-03T08:38:14;6.20;;;2.57;;
70715;SDS011;59053;50.832;12.882;2023-02-03T08:40:40;6.33;;;2.70;;
70715;SDS011;59053;50.832;12.882;2023-02-03T08:43:05;6.57;;;2.73;;
70715;SDS011;59053;50.832;12.882;2023-02-03T08:45:31;5.67;;;2.30;;
70715;SDS011;59053;50.832;12.882;2023-02-03T08:47:56;6.28;;;2.83;;
70715;SDS011;59053;50.832;12.882;2023-02-03T08:50:22;6.50;;;2.50;;
70715;SDS011;59053;50.832;12.882;2023-02-03T08:52:47;5.83;;;2.57;;
70715;SDS011;59053;50.832;12.882;2023-02-03T08:55:12;6.33;;;2.60;;
70715;SDS011;59053;50.832;12.882;2023-02-03T08:57:38;5.45;;;2.42;;
70715;SDS011;59053;50.832;12.882;2023-02-03T09:00:06;5.37;;;2.40;;
70715;SDS011;59053;50.832;12.882;2023-02-03T09:02:32;7.28;;;2.60;;
70715;SDS011;59053;50.832;12.882;2023-02-03T09:04:57;7.90;;;2.57;;
70715;SDS011;59053;50.832;12.882;2023-02-03T09:07:23;5.43;;;2.22;;
70715;SDS011;59053;50.832;12.882;2023-02-03T09:09:48;6.40;;;2.67;;
70715;SDS011;59053;50.832;12.882;2023-02-03T09:12:14;5.67;;;2.47;;
70715;SDS011;59053;50.832;12.882;2023-02-03T09:14:39;5.03;;;2.10;;
70715;SDS011;59053;50.832;12.882;2023-02-03T09:17:05;5.43;;;2.50;;
70715;SDS011;59053;50.832;12.882;2023-02-03T09:19:32;6.53;;;2.58;;
70715;SDS011;59053;50.832;12.882;2023-02-03T09:21:58;5.25;;;2.40;;
70715;SDS011;59053;50.832;12.882;2023-02-03T09:24:23;5.30;;;2.40;;
70715;SDS011;59053;50.832;12.882;2023-02-03T09:26:48;6.60;;;2.77;;
70715;SDS011;59053;50.832;12.882;2023-02-03T09:29:14;7.88;;;2.88;;
70715;SDS011;59053;50.832;12.882;2023-02-03T09:31:39;6.93;;;2.37;;
70715;SDS011;59053;50.832;12.882;2023-02-03T09:34:05;8.63;;;3.23;;
70715;SDS011;59053;50.832;12.882;2023-02-03T09:36:31;6.43;;;2.30;;
70715;SDS011;59053;50.832;12.882;2023-02-03T09:38:57;8.93;;;3.23;;
70715;SDS011;59053;50.832;12.882;2023-02-03T09:44:03;6.32;;;2.50;;
70715;SDS011;59053;50.832;12.882;2023-02-03T09:46:37;5.97;;;2.60;;
70715;SDS011;59053;50.832;12.882;2023-02-03T09:51:43;4.75;;;2.47;;
70715;SDS011;59053;50.832;12.882;2023-02-03T09:54:21;5.70;;;2.40;;
70715;SDS011;59053;50.832;12.882;2023-02-03T09:56:50;5.63;;;2.75;;
70715;SDS011;59053;50.832;12.882;2023-02-03T09:59:18;10.07;;;2.87;;
70715;SDS011;59053;50.832;12.882;2023-02-03T10:01:58;9.43;;;2.90;;
70715;SDS011;59053;50.832;12.882;2023-02-03T10:04:36;6.57;;;2.93;;
70715;SDS011;59053;50.832;12.882;2023-02-03T10:09:38;5.85;;;2.53;;
70715;SDS011;59053;50.832;12.882;2023-02-03T10:12:20;7.13;;;2.97;;
70715;SDS011;59053;50.832;12.882;2023-02-03T10:17:58;6.33;;;2.70;;
70715;SDS011;59053;50.832;12.882;2023-02-03T10:20:31;6.65;;;2.70;;
70715;SDS011;59053;50.832;12.882;2023-02-03T10:23:01;5.72;;;2.58;;
70715;SDS011;59053;50.832;12.882;2023-02-03T10:26:03;7.53;;;2.90;;
70715;SDS011;59053;50.832;12.882;2023-02-03T10:28:23;6.00;;;2.22;;
70715;SDS011;59053;50.832;12.882;2023-02-03T10:30:53;6.03;;;2.30;;
70715;SDS011;59053;50.832;12.882;2023-02-03T10:33:20;8.32;;;2.17;;
70715;SDS011;59053;50.832;12.882;2023-02-03T10:35:53;6.40;;;2.58;;
70715;SDS011;59053;50.832;12.882;2023-02-03T10:38:25;6.43;;;2.70;;
70715;SDS011;59053;50.832;12.882;2023-02-03T10:40:54;8.57;;;2.90;;
70715;SDS011;59053;50.832;12.882;2023-02-03T10:43:19;7.87;;;3.03;;
70715;SDS011;59053;50.832;12.882;2023-02-03T10:46:03;8.35;;;3.00;;
70715;SDS011;59053;50.832;12.882;2023-02-03T10:48:29;7.20;;;2.80;;
70715;SDS011;59053;50.832;12.882;2023-02-03T10:50:57;5.93;;;2.92;;
70715;SDS011;59053;50.832;12.882;2023-02-03T10:53:33;12.07;;;3.38;;
70715;SDS011;59053;50.832;12.882;2023-02-03T10:56:03;6.88;;;3.20;;
70715;SDS011;59053;50.832;12.882;2023-02-03T10:58:31;8.23;;;3.50;;
70715;SDS011;59053;50.832;12.882;2023-02-03T11:01:06;7.95;;;3.33;;
70715;SDS011;59053;50.832;12.882;2023-02-03T11:03:33;8.63;;;3.38;;
70715;SDS011;59053;50.832;12.882;2023-02-03T11:06:04;10.57;;;3.37;;
70715;SDS011;59053;50.832;12.882;2023-02-03T11:08:34;8.65;;;3.30;;
70715;SDS011;59053;50.832;12.882;2023-02-03T11:11:05;6.72;;;2.80;;
70715;SDS011;59053;50.832;12.882;2023-02-03T11:13:37;7.43;;;3.20;;
70715;SDS011;59053;50.832;12.882;2023-02-03T11:16:16;7.37;;;2.77;;
70715;SDS011;59053;50.832;12.882;2023-02-03T11:18:54;6.90;;;2.75;;
70715;SDS011;59053;50.832;12.882;2023-02-03T11:21:31;7.03;;;2.97;;
70715;SDS011;59053;50.832;12.882;2023-02-03T11:24:02;5.18;;;2.38;;
70715;SDS011;59053;50.832;12.882;2023-02-03T11:26:41;6.72;;;2.92;;
70715;SDS011;59053;50.832;12.882;2023-02-03T11:29:16;7.82;;;2.70;;
70715;SDS011;59053;50.832;12.882;2023-02-03T11:31:45;5.03;;;2.15;;
70715;SDS011;59053;50.832;12.882;2023-02-03T11:34:16;6.03;;;2.53;;
70715;SDS011;59053;50.832;12.882;2023-02-03T11:36:43;4.65;;;2.05;;
70715;SDS011;59053;50.832;12.882;2023-02-03T11:39:16;7.37;;;2.90;;
70715;SDS011;59053;50.832;12.882;2023-02-03T11:41:52;6.18;;;2.40;;
70715;SDS011;59053;50.832;12.882;2023-02-03T11:46:52;6.47;;;3.03;;
70715;SDS011;59053;50.832;12.882;2023-02-03T11:57:22;5.83;;;2.50;;
70715;SDS011;59053;50.832;12.882;2023-02-03T12:03:01;11.80;;;2.63;;
70715;SDS011;59053;50.832;12.882;2023-02-03T12:05:54;8.45;;;3.22;;
70715;SDS011;59053;50.832;12.882;2023-02-03T12:08:31;7.68;;;2.78;;
70715;SDS011;59053;50.832;12.882;2023-02-03T12:14:03;6.95;;;2.50;;
70715;SDS011;59053;50.832;12.882;2023-02-03T12:24:50;3.60;;;1.23;;
70715;SDS011;59053;50.832;12.882;2023-02-03T12:27:27;3.55;;;1.40;;
70715;SDS011;59053;50.832;12.882;2023-02-03T12:30:00;3.58;;;1.60;;
70715;SDS011;59053;50.832;12.882;2023-02-03T12:32:37;3.20;;;1.60;;
70715;SDS011;59053;50.832;12.882;2023-02-03T12:35:17;4.32;;;1.80;;
70715;SDS011;59053;50.832;12.882;2023-02-03T12:37:47;2.53;;;1.47;;
70715;SDS011;59053;50.832;12.882;2023-02-03T12:40:25;2.80;;;1.50;;
70715;SDS011;59053;50.832;12.882;2023-02-03T12:42:56;4.63;;;2.00;;
70715;SDS011;59053;50.832;12.882;2023-02-03T12:45:26;4.18;;;1.70;;
70715;SDS011;59053;50.832;12.882;2023-02-03T12:48:01;4.50;;;1.83;;
70715;SDS011;59053;50.832;12.882;2023-02-03T12:50:31;3.37;;;1.87;;
70715;SDS011;59053;50.832;12.882;2023-02-03T12:53:01;4.63;;;1.88;;
70715;SDS011;59053;50.832;12.882;2023-02-03T13:00:39;4.28;;;1.60;;
70715;SDS011;59053;50.832;12.882;2023-02-03T13:06:20;3.15;;;1.30;;
70715;SDS011;59053;50.832;12.882;2023-02-03T13:16:44;3.27;;;1.57;;
70715;SDS011;59053;50.832;12.882;2023-02-03T13:19:13;4.28;;;1.80;;
70715;SDS011;59053;50.832;12.882;2023-02-03T13:21:49;3.60;;;1.63;;
70715;SDS011;59053;50.832;12.882;2023-02-03T13:24:14;2.85;;;1.27;;
70715;SDS011;59053;50.832;12.882;2023-02-03T13:27:02;3.47;;;1.60;;
70715;SDS011;59053;50.832;12.882;2023-02-03T13:29:49;4.35;;;1.83;;
70715;SDS011;59053;50.832;12.882;2023-02-03T13:35:19;3.33;;;1.70;;
70715;SDS011;59053;50.832;12.882;2023-02-03T13:43:27;3.97;;;1.88;;
70715;SDS011;59053;50.832;12.882;2023-02-03T13:45:54;3.85;;;1.38;;
70715;SDS011;59053;50.832;12.882;2023-02-03T13:48:20;2.67;;;1.50;;
70715;SDS011;59053;50.832;12.882;2023-02-03T13:50:48;2.50;;;1.48;;
70715;SDS011;59053;50.832;12.882;2023-02-03T13:53:18;3.42;;;1.58;;
70715;SDS011;59053;50.832;12.882;2023-02-03T13:55:52;3.08;;;1.50;;
70715;SDS011;59053;50.832;12.882;2023-02-03T13:58:29;3.43;;;1.43;;
70715;SDS011;59053;50.832;12.882;2023-02-03T14:05:48;4.30;;;1.50;;
70715;SDS011;59053;50.832;12.882;2023-02-03T14:11:36;1.85;;;0.80;;
70715;SDS011;59053;50.832;12.882;2023-02-03T14:14:39;3.13;;;1.20;;
70715;SDS011;59053;50.832;12.882;2023-02-03T14:16:48;1.63;;;1.00;;
70715;SDS011;59053;50.832;12.882;2023-02-03T14:21:52;3.22;;;1.10;;
70715;SDS011;59053;50.832;12.882;2023-02-03T14:24:19;2.53;;;0.90;;
70715;SDS011;59053;50.832;12.882;2023-02-03T14:26:52;3.13;;;1.30;;
70715;SDS011;59053;50.832;12.882;2023-02-03T14:31:51;2.17;;;1.00;;
70715;SDS011;59053;50.832;12.882;2023-02-03T14:34:23;2.85;;;1.23;;
70715;SDS011;59053;50.832;12.882;2023-02-03T14:37:14;3.60;;;1.00;;
70715;SDS011;59053;50.832;12.882;2023-02-03T14:39:45;3.38;;;1.10;;
70715;SDS011;59053;50.832;12.882;2023-02-03T14:42:27;3.17;;;1.02;;
70715;SDS011;59053;50.832;12.882;2023-02-03T14:44:59;2.60;;;1.10;;
70715;SDS011;59053;50.832;12.882;2023-02-03T14:50:04;2.33;;;1.00;;
70715;SDS011;59053;50.832;12.882;2023-02-03T14:57:45;2.00;;;0.70;;
70715;SDS011;59053;50.832;12.882;2023-02-03T15:03:13;5.18;;;1.00;;
70715;SDS011;59053;50.832;12.882;2023-02-03T15:05:40;5.33;;;0.93;;
70715;SDS011;59053;50.832;12.882;2023-02-03T15:10:55;7.80;;;0.95;;
70715;SDS011;59053;50.832;12.882;2023-02-03T15:13:24;4.93;;;0.87;;
70715;SDS011;59053;50.832;12.882;2023-02-03T15:15:59;6.70;;;1.40;;
70715;SDS011;59053;50.832;12.882;2023-02-03T15:18:28;7.18;;;1.17;;
70715;SDS011;59053;50.832;12.882;2023-02-03T15:20:55;5.78;;;1.30;;
70715;SDS011;59053;50.832;12.882;2023-02-03T15:23:27;3.67;;;1.30;;
70715;SDS011;59053;50.832;12.882;2023-02-03T15:25:55;4.82;;;1.33;;
70715;SDS011;59053;50.832;12.882;2023-02-03T15:28:22;4.23;;;1.00;;
70715;SDS011;59053;50.832;12.882;2023-02-03T15:30:50;3.03;;;0.90;;
70715;SDS011;59053;50.832;12.882;2023-02-03T15:33:19;7.38;;;1.13;;
70715;SDS011;59053;50.832;12.882;2023-02-03T15:35:47;8.40;;;1.23;;
70715;SDS011;59053;50.832;12.882;2023-02-03T15:38:19;8.98;;;1.27;;
70715;SDS011;59053;50.832;12.882;2023-02-03T15:40:53;5.03;;;1.13;;
70715;SDS011;59053;50.832;12.882;2023-02-03T15:43:41;5.10;;;0.80;;
70715;SDS011;59053;50.832;12.882;2023-02-03T15:49:10;6.60;;;1.38;;
70715;SDS011;59053;50.832;12.882;2023-02-03T15:51:39;8.13;;;1.40;;
70715;SDS011;59053;50.832;12.882;2023-02-03T15:54:12;7.00;;;1.77;;
70715;SDS011;59053;50.832;12.882;2023-02-03T15:57:04;6.78;;;1.30;;
70715;SDS011;59053;50.832;12.882;2023-02-03T16:00:07;8.90;;;1.55;;
70715;SDS011;59053;50.832;12.882;2023-02-03T16:02:41;5.35;;;1.10;;
70715;SDS011;59053;50.832;12.882;2023-02-03T16:05:20;7.18;;;1.50;;
70715;SDS011;59053;50.832;12.882;2023-02-03T16:07:48;7.73;;;1.20;;
70715;SDS011;59053;50.832;12.882;2023-02-03T16:10:24;9.02;;;1.35;;
70715;SDS011;59053;50.832;12.882;2023-02-03T16:13:09;10.10;;;1.88;;
70715;SDS011;59053;50.832;12.882;2023-02-03T16:15:42;5.10;;;1.30;;
70715;SDS011;59053;50.832;12.882;2023-02-03T16:18:10;11.53;;;1.47;;
70715;SDS011;59053;50.832;12.882;2023-02-03T16:20:46;17.70;;;4.07;;
70715;SDS011;59053;50.832;12.882;2023-02-03T16:23:20;10.15;;;1.48;;
70715;SDS011;59053;50.832;12.882;2023-02-03T16:28:30;4.45;;;1.02;;
70715;SDS011;59053;50.832;12.882;2023-02-03T16:31:16;6.93;;;1.10;;